Time,TemperatureF,DewpointF,PressureIn,WindDirection,WindDirectionDegrees,WindSpeedMPH,WindSpeedGustMPH,Humidity,HourlyPrecipIn,Conditions,Clouds,dailyrainin,SoftwareType,DateUTC
2013-04-20 00:01:00,63.7,61.3,29.68,South,171,0.0,7.0,92,0.02,,,0.02,meteohub,2013-04-20 04:01:00,
2013-04-20 00:06:00,63.3,61.0,29.67,SSW,198,0.0,3.0,92,0.02,,,0.00,meteohub,2013-04-20 04:06:00,
2013-04-20 00:11:00,63.3,61.0,29.67,SSW,198,0.0,2.0,92,0.02,,,0.00,meteohub,2013-04-20 04:11:00,
2013-04-20 00:16:00,63.1,61.2,29.67,SSW,198,0.0,2.0,93,0.02,,,0.00,meteohub,2013-04-20 04:16:00,
2013-04-20 00:21:00,63.1,61.2,29.67,SSW,198,0.0,1.0,93,0.02,,,0.00,meteohub,2013-04-20 04:21:00,
2013-04-20 00:26:00,63.0,61.0,29.67,SSW,198,0.0,1.0,93,0.02,,,0.00,meteohub,2013-04-20 04:26:00,
2013-04-20 00:31:00,63.0,61.0,29.66,SSW,198,0.0,1.0,93,0.02,,,0.00,meteohub,2013-04-20 04:31:00,
2013-04-20 00:36:00,62.8,60.8,29.66,SSW,198,0.0,1.0,93,0.02,,,0.00,meteohub,2013-04-20 04:36:00,
2013-04-20 00:41:00,62.8,60.8,29.66,SSW,197,0.0,1.0,93,0.02,,,0.00,meteohub,2013-04-20 04:41:00,
2013-04-20 00:47:00,62.6,60.6,29.66,SE,134,0.0,1.0,93,0.01,,,0.00,meteohub,2013-04-20 04:47:00,
2013-04-20 00:52:00,62.4,60.4,29.66,SSE,153,1.0,3.0,93,0.00,,,0.00,meteohub,2013-04-20 04:52:00,
2013-04-20 00:57:00,62.2,60.3,29.67,SSW,196,0.0,6.0,93,0.01,,,0.01,meteohub,2013-04-20 04:57:00,
2013-04-20 01:02:00,62.1,60.1,29.66,SE,137,0.0,6.0,93,0.01,,,0.01,meteohub,2013-04-20 05:02:00,
2013-04-20 01:07:00,62.1,60.1,29.67,SW,215,0.0,4.0,93,0.01,,,0.01,meteohub,2013-04-20 05:07:00,
2013-04-20 01:12:00,61.7,59.7,29.66,SE,140,0.0,4.0,93,0.02,,,0.01,meteohub,2013-04-20 05:12:00,
2013-04-20 01:17:00,61.3,59.4,29.66,SE,137,1.0,4.0,93,0.02,,,0.02,meteohub,2013-04-20 05:17:00,
2013-04-20 01:22:00,61.2,59.2,29.66,SSW,205,4.0,6.0,93,0.02,,,0.02,meteohub,2013-04-20 05:22:00,
2013-04-20 01:27:00,61.0,59.0,29.67,WSW,252,0.0,6.0,93,0.03,,,0.02,meteohub,2013-04-20 05:27:00,
2013-04-20 01:32:00,60.8,58.8,29.68,West,269,0.0,6.0,93,0.04,,,0.04,meteohub,2013-04-20 05:32:00,
2013-04-20 01:37:00,60.6,58.8,29.68,SSW,201,1.0,4.0,94,0.08,,,0.08,meteohub,2013-04-20 05:37:00,
2013-04-20 01:42:00,60.6,58.6,29.68,SSE,161,1.0,5.0,93,0.10,,,0.10,meteohub,2013-04-20 05:42:00,
2013-04-20 01:47:00,60.4,58.5,29.67,South,182,0.0,5.0,93,0.11,,,0.11,meteohub,2013-04-20 05:47:00,
2013-04-20 01:52:00,60.1,57.7,29.67,WSW,238,0.0,5.0,92,0.10,,,0.11,meteohub,2013-04-20 05:52:00,
2013-04-20 01:57:00,59.7,57.0,29.67,SSW,206,0.0,3.0,91,0.10,,,0.11,meteohub,2013-04-20 05:57:00,
2013-04-20 02:02:00,59.5,57.2,29.68,NW,309,2.0,3.0,92,0.10,,,0.11,meteohub,2013-04-20 06:02:00,
2013-04-20 02:07:00,58.5,54.3,29.67,WNW,286,3.0,4.0,86,0.10,,,0.11,meteohub,2013-04-20 06:07:00,
2013-04-20 02:12:00,57.0,53.2,29.68,NNE,23,2.0,11.0,87,0.09,,,0.11,meteohub,2013-04-20 06:12:00,
2013-04-20 02:17:00,55.9,52.2,29.69,West,265,0.0,11.0,87,0.10,,,0.12,meteohub,2013-04-20 06:17:00,
2013-04-20 02:22:00,55.0,51.3,29.69,WNW,287,0.0,9.0,87,0.10,,,0.12,meteohub,2013-04-20 06:22:00,
2013-04-20 02:27:00,54.1,50.4,29.68,West,275,3.0,8.0,87,0.09,,,0.12,meteohub,2013-04-20 06:27:00,
2013-04-20 02:32:00,53.6,50.2,29.69,NW,312,0.0,5.0,88,0.07,,,0.12,meteohub,2013-04-20 06:32:00,
2013-04-20 02:37:00,53.1,49.6,29.68,WNW,297,0.0,3.0,88,0.03,,,0.12,meteohub,2013-04-20 06:37:00,
2013-04-20 02:42:00,52.5,49.1,29.70,WNW,303,2.0,3.0,88,0.02,,,0.12,meteohub,2013-04-20 06:42:00,
2013-04-20 02:47:00,52.0,48.9,29.71,West,268,1.0,4.0,89,0.01,,,0.12,meteohub,2013-04-20 06:47:00,
2013-04-20 02:52:00,51.6,48.6,29.73,West,259,0.0,4.0,89,0.01,,,0.12,meteohub,2013-04-20 06:52:00,
2013-04-20 02:57:00,51.3,48.2,29.71,WNW,282,0.0,6.0,89,0.02,,,0.13,meteohub,2013-04-20 06:57:00,
2013-04-20 03:02:00,50.5,47.1,29.70,NW,313,0.0,6.0,88,0.03,,,0.14,meteohub,2013-04-20 07:02:00,
2013-04-20 03:07:00,50.2,46.8,29.70,North,355,3.0,8.0,88,0.03,,,0.14,meteohub,2013-04-20 07:07:00,
2013-04-20 03:12:00,49.6,46.6,29.69,WNW,297,0.0,8.0,89,0.03,,,0.14,meteohub,2013-04-20 07:12:00,
2013-04-20 03:17:00,49.3,46.4,29.69,WNW,290,1.0,8.0,90,0.02,,,0.14,meteohub,2013-04-20 07:17:00,
2013-04-20 03:22:00,48.9,46.0,29.69,NW,325,2.0,6.0,90,0.03,,,0.15,meteohub,2013-04-20 07:22:00,
2013-04-20 03:27:00,48.7,46.2,29.69,NNE,30,7.0,7.0,91,0.03,,,0.15,meteohub,2013-04-20 07:27:00,
2013-04-20 03:32:00,48.6,45.7,29.69,NNW,341,0.0,8.0,90,0.03,,,0.15,meteohub,2013-04-20 07:32:00,
2013-04-20 03:37:00,48.2,45.3,29.70,NNW,346,0.0,8.0,90,0.03,,,0.15,meteohub,2013-04-20 07:37:00,
2013-04-20 03:42:00,48.0,45.5,29.71,West,277,1.0,8.0,91,0.04,,,0.16,meteohub,2013-04-20 07:42:00,
2013-04-20 03:47:00,47.8,45.7,29.70,NE,35,2.0,8.0,92,0.04,,,0.16,meteohub,2013-04-20 07:47:00,
2013-04-20 03:52:00,47.7,45.5,29.71,ENE,61,0.0,5.0,92,0.05,,,0.17,meteohub,2013-04-20 07:52:00,
2013-04-20 03:57:00,47.5,45.3,29.75,WNW,282,1.0,5.0,92,0.04,,,0.18,meteohub,2013-04-20 07:57:00,
2013-04-20 04:02:00,47.1,44.6,29.76,West,281,0.0,4.0,91,0.04,,,0.18,meteohub,2013-04-20 08:02:00,
2013-04-20 04:07:00,46.9,44.4,29.75,WNW,303,0.0,4.0,91,0.06,,,0.20,meteohub,2013-04-20 08:07:00,
2013-04-20 04:12:00,46.8,44.2,29.74,NW,326,1.0,3.0,91,0.07,,,0.21,meteohub,2013-04-20 08:12:00,
2013-04-20 04:17:00,46.4,43.9,29.73,NW,321,0.0,3.0,91,0.08,,,0.22,meteohub,2013-04-20 08:17:00,
2013-04-20 04:22:00,46.0,43.5,29.73,WNW,294,0.0,4.0,91,0.08,,,0.23,meteohub,2013-04-20 08:22:00,
2013-04-20 04:27:00,45.9,43.3,29.73,NE,34,3.0,4.0,91,0.08,,,0.23,meteohub,2013-04-20 08:27:00,
2013-04-20 04:32:00,45.7,43.2,29.73,NNW,344,3.0,8.0,91,0.08,,,0.23,meteohub,2013-04-20 08:32:00,
2013-04-20 04:37:00,45.7,43.2,29.73,NE,54,2.0,8.0,91,0.09,,,0.24,meteohub,2013-04-20 08:37:00,
2013-04-20 04:42:00,45.3,42.8,29.73,North,355,5.0,8.0,91,0.08,,,0.24,meteohub,2013-04-20 08:42:00,
2013-04-20 04:47:00,45.3,42.6,29.74,NNW,338,2.0,8.0,90,0.08,,,0.24,meteohub,2013-04-20 08:47:00,
2013-04-20 04:52:00,45.1,42.1,29.76,North,355,3.0,13.0,89,0.07,,,0.24,meteohub,2013-04-20 08:52:00,
2013-04-20 04:57:00,45.0,41.9,29.76,NNW,335,2.0,13.0,89,0.06,,,0.24,meteohub,2013-04-20 08:57:00,
2013-04-20 05:02:00,44.8,41.7,29.76,NNE,26,2.0,13.0,89,0.06,,,0.25,meteohub,2013-04-20 09:02:00,
2013-04-20 05:07:00,44.4,41.7,29.77,North,5,0.0,7.0,90,0.05,,,0.25,meteohub,2013-04-20 09:07:00,
2013-04-20 05:12:00,44.2,41.5,29.77,NNW,341,0.0,6.0,90,0.04,,,0.26,meteohub,2013-04-20 09:12:00,
2013-04-20 05:17:00,44.2,41.7,29.78,NNW,341,0.0,6.0,91,0.04,,,0.26,meteohub,2013-04-20 09:17:00,
2013-04-20 05:22:00,44.1,41.5,29.78,NNE,19,0.0,2.0,91,0.03,,,0.26,meteohub,2013-04-20 09:22:00,
2013-04-20 05:27:00,44.1,41.9,29.78,NW,306,0.0,2.0,92,0.03,,,0.26,meteohub,2013-04-20 09:27:00,
2013-04-20 05:32:00,43.9,41.7,29.78,WNW,288,0.0,2.0,92,0.02,,,0.26,meteohub,2013-04-20 09:32:00,
2013-04-20 05:37:00,43.7,41.2,29.78,NNE,22,1.0,3.0,91,0.02,,,0.26,meteohub,2013-04-20 09:37:00,
2013-04-20 05:42:00,43.5,41.0,29.78,NNE,16,0.0,4.0,91,0.02,,,0.26,meteohub,2013-04-20 09:42:00,
2013-04-20 05:47:00,43.5,41.0,29.78,NNE,16,3.0,6.0,91,0.02,,,0.26,meteohub,2013-04-20 09:47:00,
2013-04-20 05:52:00,43.3,40.8,29.78,NNW,342,0.0,6.0,91,0.03,,,0.27,meteohub,2013-04-20 09:52:00,
2013-04-20 05:57:00,43.3,40.8,29.78,NNE,28,0.0,4.0,91,0.03,,,0.27,meteohub,2013-04-20 09:57:00,
2013-04-20 06:02:00,43.2,40.6,29.80,North,9,0.0,4.0,91,0.03,,,0.28,meteohub,2013-04-20 10:02:00,
2013-04-20 06:07:00,43.2,40.6,29.81,North,9,0.0,5.0,91,0.02,,,0.28,meteohub,2013-04-20 10:07:00,
2013-04-20 06:12:00,43.2,40.6,29.81,NE,36,0.0,5.0,91,0.02,,,0.28,meteohub,2013-04-20 10:12:00,
2013-04-20 06:17:00,43.2,41.0,29.83,NE,36,0.0,3.0,92,0.02,,,0.28,meteohub,2013-04-20 10:17:00,
2013-04-20 06:22:00,43.2,41.0,29.83,East,90,0.0,3.0,92,0.03,,,0.29,meteohub,2013-04-20 10:22:00,
2013-04-20 06:27:00,43.2,41.0,29.83,East,98,0.0,3.0,92,0.04,,,0.30,meteohub,2013-04-20 10:27:00,
2013-04-20 06:32:00,43.2,41.0,29.83,South,175,0.0,2.0,92,0.04,,,0.30,meteohub,2013-04-20 10:32:00,
2013-04-20 06:37:00,43.2,41.0,29.83,South,175,0.0,2.0,92,0.05,,,0.31,meteohub,2013-04-20 10:37:00,
2013-04-20 06:42:00,43.2,41.0,29.83,South,175,0.0,2.0,92,0.05,,,0.31,meteohub,2013-04-20 10:42:00,
2013-04-20 06:47:00,43.2,41.0,29.84,South,175,0.0,0.0,92,0.04,,,0.31,meteohub,2013-04-20 10:47:00,
2013-04-20 06:52:00,43.2,41.0,29.85,South,175,0.0,1.0,92,0.04,,,0.31,meteohub,2013-04-20 10:52:00,
2013-04-20 06:57:00,43.2,41.0,29.85,South,175,0.0,1.0,92,0.03,,,0.31,meteohub,2013-04-20 10:57:00,
2013-04-20 07:02:00,43.2,41.0,29.85,South,175,0.0,1.0,92,0.03,,,0.31,meteohub,2013-04-20 11:02:00,
2013-04-20 07:07:00,43.2,41.0,29.86,South,175,0.0,1.0,92,0.03,,,0.31,meteohub,2013-04-20 11:07:00,
2013-04-20 07:12:00,43.2,41.0,29.87,South,175,0.0,1.0,92,0.03,,,0.31,meteohub,2013-04-20 11:12:00,
2013-04-20 07:17:00,43.2,41.0,29.87,South,188,1.0,1.0,92,0.02,,,0.31,meteohub,2013-04-20 11:17:00,
2013-04-20 07:22:00,43.2,41.0,29.86,South,188,0.0,2.0,92,0.02,,,0.31,meteohub,2013-04-20 11:22:00,
2013-04-20 07:27:00,43.2,41.0,29.87,SSW,192,0.0,2.0,92,0.01,,,0.31,meteohub,2013-04-20 11:27:00,
2013-04-20 07:32:00,43.2,40.6,29.87,SW,225,1.0,2.0,91,0.01,,,0.31,meteohub,2013-04-20 11:32:00,
2013-04-20 07:37:00,43.2,40.6,29.87,SW,225,0.0,3.0,91,0.00,,,0.31,meteohub,2013-04-20 11:37:00,
2013-04-20 07:42:00,43.3,40.8,29.87,SW,225,0.0,3.0,91,0.00,,,0.31,meteohub,2013-04-20 11:42:00,
2013-04-20 07:47:00,43.3,41.2,29.86,SW,225,0.0,3.0,92,0.00,,,0.31,meteohub,2013-04-20 11:47:00,
2013-04-20 07:52:00,43.5,41.0,29.87,SW,225,0.0,1.0,91,0.00,,,0.31,meteohub,2013-04-20 11:52:00,
2013-04-20 07:57:00,43.7,41.5,29.88,SW,225,0.0,1.0,92,0.00,,,0.31,meteohub,2013-04-20 11:57:00,
2013-04-20 08:02:00,43.9,41.4,29.87,NNW,331,0.0,0.0,91,0.00,,,0.31,meteohub,2013-04-20 12:02:00,
2013-04-20 08:07:00,44.1,41.5,29.86,NNW,331,0.0,2.0,91,0.00,,,0.31,meteohub,2013-04-20 12:07:00,
2013-04-20 08:12:00,44.2,41.5,29.86,NW,317,0.0,2.0,90,0.00,,,0.31,meteohub,2013-04-20 12:12:00,
2013-04-20 08:17:00,44.2,41.5,29.87,NW,317,0.0,2.0,90,0.00,,,0.31,meteohub,2013-04-20 12:17:00,
2013-04-20 08:22:00,44.4,41.7,29.87,NW,317,0.0,1.0,90,0.00,,,0.31,meteohub,2013-04-20 12:22:00,
2013-04-20 08:27:00,44.6,41.5,29.87,West,259,0.0,1.0,89,0.00,,,0.31,meteohub,2013-04-20 12:27:00,
2013-04-20 08:32:00,44.8,41.7,29.88,West,259,1.0,3.0,89,0.00,,,0.31,meteohub,2013-04-20 12:32:00,
2013-04-20 08:37:00,45.0,41.5,29.88,WSW,258,0.0,3.0,88,0.00,,,0.31,meteohub,2013-04-20 12:37:00,
2013-04-20 08:42:00,45.1,42.1,29.87,WSW,258,0.0,2.0,89,0.00,,,0.31,meteohub,2013-04-20 12:42:00,
2013-04-20 08:48:00,45.3,41.9,29.87,WSW,258,0.0,2.0,88,0.00,,,0.31,meteohub,2013-04-20 12:48:00,
2013-04-20 08:53:00,45.3,41.0,29.87,West,259,0.0,1.0,85,0.00,,,0.31,meteohub,2013-04-20 12:53:00,
2013-04-20 08:58:00,45.5,41.0,29.87,NNW,343,0.0,1.0,84,0.00,,,0.31,meteohub,2013-04-20 12:58:00,
2013-04-20 09:03:00,45.7,41.7,29.87,WNW,297,0.0,2.0,86,0.00,,,0.31,meteohub,2013-04-20 13:03:00,
2013-04-20 09:08:00,45.9,42.3,29.87,WNW,297,0.0,2.0,87,0.00,,,0.31,meteohub,2013-04-20 13:08:00,
2013-04-20 09:13:00,46.0,42.1,29.87,West,267,0.0,2.0,86,0.00,,,0.31,meteohub,2013-04-20 13:13:00,
2013-04-20 09:18:00,46.4,42.1,29.87,NE,44,2.0,3.0,85,0.00,,,0.31,meteohub,2013-04-20 13:18:00,
2013-04-20 09:23:00,46.8,42.8,29.87,NE,49,0.0,3.0,86,0.00,,,0.31,meteohub,2013-04-20 13:23:00,
2013-04-20 09:28:00,46.9,42.4,29.87,North,5,0.0,3.0,84,0.00,,,0.31,meteohub,2013-04-20 13:28:00,
2013-04-20 09:33:00,47.1,42.6,29.87,NNE,29,0.0,3.0,84,0.00,,,0.31,meteohub,2013-04-20 13:33:00,
2013-04-20 09:38:00,47.5,42.6,29.87,NNE,26,0.0,3.0,83,0.00,,,0.31,meteohub,2013-04-20 13:38:00,
2013-04-20 09:43:00,47.5,42.3,29.87,NE,42,3.0,4.0,82,0.00,,,0.31,meteohub,2013-04-20 13:43:00,
2013-04-20 09:48:00,47.8,42.6,29.87,North,5,3.0,5.0,82,0.00,,,0.31,meteohub,2013-04-20 13:48:00,
2013-04-20 09:53:00,48.4,42.8,29.88,NNE,31,0.0,6.0,81,0.00,,,0.31,meteohub,2013-04-20 13:53:00,
2013-04-20 09:58:00,48.9,43.3,29.88,West,268,0.0,6.0,81,0.00,,,0.31,meteohub,2013-04-20 13:58:00,
2013-04-20 10:03:00,49.5,43.2,29.88,WSW,247,0.0,6.0,79,0.00,,,0.31,meteohub,2013-04-20 14:03:00,
2013-04-20 10:08:00,50.2,43.0,29.88,West,271,2.0,13.0,76,0.00,,,0.31,meteohub,2013-04-20 14:08:00,
2013-04-20 10:13:00,50.5,41.9,29.88,NW,318,1.0,13.0,72,0.00,,,0.31,meteohub,2013-04-20 14:13:00,
2013-04-20 10:18:00,50.9,42.3,29.89,WSW,242,6.0,7.0,72,0.00,,,0.31,meteohub,2013-04-20 14:18:00,
2013-04-20 10:23:00,51.1,41.2,29.90,WSW,240,3.0,13.0,69,0.00,,,0.31,meteohub,2013-04-20 14:23:00,
2013-04-20 10:28:00,51.6,41.0,29.91,West,272,4.0,13.0,67,0.00,,,0.31,meteohub,2013-04-20 14:28:00,
2013-04-20 10:33:00,52.0,41.0,29.90,West,263,4.0,13.0,66,0.00,,,0.31,meteohub,2013-04-20 14:33:00,
2013-04-20 10:38:00,52.2,39.6,29.91,WSW,240,8.0,13.0,62,0.00,,,0.31,meteohub,2013-04-20 14:38:00,
2013-04-20 10:43:00,52.2,37.4,29.91,West,268,1.0,13.0,57,0.00,,,0.31,meteohub,2013-04-20 14:43:00,
2013-04-20 10:48:00,52.3,38.8,29.92,WNW,301,0.0,14.0,60,0.00,,,0.31,meteohub,2013-04-20 14:48:00,
2013-04-20 10:53:00,52.5,38.7,29.92,West,267,2.0,17.0,59,0.00,,,0.31,meteohub,2013-04-20 14:53:00,
2013-04-20 10:58:00,52.7,38.8,29.93,WSW,239,1.0,17.0,59,0.00,,,0.31,meteohub,2013-04-20 14:58:00,
2013-04-20 11:03:00,52.9,38.5,29.92,West,260,4.0,17.0,58,0.00,,,0.31,meteohub,2013-04-20 15:03:00,
2013-04-20 11:08:00,52.9,38.1,29.92,West,267,2.0,12.0,57,0.00,,,0.31,meteohub,2013-04-20 15:08:00,
2013-04-20 11:13:00,53.1,38.3,29.92,NW,316,0.0,12.0,57,0.00,,,0.31,meteohub,2013-04-20 15:13:00,
2013-04-20 11:18:00,53.1,38.7,29.92,NW,319,0.0,12.0,58,0.00,,,0.31,meteohub,2013-04-20 15:18:00,
2013-04-20 11:23:00,53.4,40.3,29.93,West,265,3.0,11.0,61,0.00,,,0.31,meteohub,2013-04-20 15:23:00,
2013-04-20 11:28:00,53.2,38.5,29.93,NNW,338,9.0,9.0,57,0.00,,,0.31,meteohub,2013-04-20 15:28:00,
2013-04-20 11:33:00,53.1,39.9,29.93,West,280,0.0,10.0,61,0.00,,,0.31,meteohub,2013-04-20 15:33:00,
2013-04-20 11:39:00,53.1,39.6,29.94,WNW,282,1.0,13.0,60,0.00,,,0.31,meteohub,2013-04-20 15:39:00,
2013-04-20 11:44:00,53.2,38.5,29.93,West,267,4.0,13.0,57,0.00,,,0.31,meteohub,2013-04-20 15:44:00,
2013-04-20 11:49:00,53.1,38.3,29.94,SW,232,4.0,10.0,57,0.00,,,0.31,meteohub,2013-04-20 15:49:00,
2013-04-20 11:54:00,53.2,39.7,29.93,West,269,5.0,11.0,60,0.00,,,0.31,meteohub,2013-04-20 15:54:00,
2013-04-20 11:59:00,53.2,37.4,29.93,West,266,4.0,11.0,55,0.00,,,0.31,meteohub,2013-04-20 15:59:00,
2013-04-20 12:04:00,53.2,37.4,29.94,WSW,257,2.0,11.0,55,0.00,,,0.31,meteohub,2013-04-20 16:04:00,
2013-04-20 12:09:00,53.4,37.6,29.93,West,279,3.0,8.0,55,0.00,,,0.31,meteohub,2013-04-20 16:09:00,
2013-04-20 12:14:00,53.8,38.8,29.93,West,269,4.0,8.0,57,0.00,,,0.31,meteohub,2013-04-20 16:14:00,
2013-04-20 12:19:00,53.8,37.0,29.94,West,272,2.0,15.0,53,0.00,,,0.31,meteohub,2013-04-20 16:19:00,
2013-04-20 12:24:00,54.1,36.0,29.94,West,281,0.0,15.0,50,0.00,,,0.31,meteohub,2013-04-20 16:24:00,
2013-04-20 12:29:00,54.0,36.3,29.94,WSW,246,5.0,15.0,51,0.00,,,0.31,meteohub,2013-04-20 16:29:00,
2013-04-20 12:34:00,53.8,35.6,29.94,SSW,208,9.0,12.0,50,0.00,,,0.31,meteohub,2013-04-20 16:34:00,
2013-04-20 12:39:00,53.4,34.7,29.94,WNW,291,2.0,12.0,49,0.00,,,0.31,meteohub,2013-04-20 16:39:00,
2013-04-20 12:44:00,53.4,36.3,29.94,West,263,5.0,12.0,52,0.00,,,0.31,meteohub,2013-04-20 16:44:00,
2013-04-20 12:49:00,54.0,36.3,29.93,WSW,238,7.0,15.0,51,0.00,,,0.31,meteohub,2013-04-20 16:49:00,
2013-04-20 12:54:00,54.0,35.2,29.94,West,264,3.0,15.0,49,0.00,,,0.31,meteohub,2013-04-20 16:54:00,
2013-04-20 12:59:00,54.0,35.8,29.94,West,277,2.0,11.0,50,0.00,,,0.31,meteohub,2013-04-20 16:59:00,
2013-04-20 13:04:00,54.1,35.4,29.93,West,263,7.0,11.0,49,0.00,,,0.31,meteohub,2013-04-20 17:04:00,
2013-04-20 13:09:00,54.1,36.0,29.93,West,275,0.0,11.0,50,0.00,,,0.31,meteohub,2013-04-20 17:09:00,
2013-04-20 13:14:00,54.1,36.0,29.93,West,268,1.0,10.0,50,0.00,,,0.31,meteohub,2013-04-20 17:14:00,
2013-04-20 13:19:00,54.0,32.5,29.93,WSW,238,4.0,10.0,44,0.00,,,0.31,meteohub,2013-04-20 17:19:00,
2013-04-20 13:24:00,54.0,34.2,29.94,West,278,1.0,10.0,47,0.00,,,0.31,meteohub,2013-04-20 17:24:00,
2013-04-20 13:29:00,54.1,33.8,29.94,West,281,0.0,9.0,46,0.00,,,0.31,meteohub,2013-04-20 17:29:00,
2013-04-20 13:34:00,54.3,34.0,29.94,West,273,3.0,9.0,46,0.00,,,0.31,meteohub,2013-04-20 17:34:00,
2013-04-20 13:39:00,54.5,34.2,29.94,WSW,248,3.0,6.0,46,0.00,,,0.31,meteohub,2013-04-20 17:39:00,
2013-04-20 13:44:00,54.3,35.1,29.94,West,265,1.0,11.0,48,0.00,,,0.31,meteohub,2013-04-20 17:44:00,
2013-04-20 13:49:00,54.7,36.0,29.94,WNW,288,0.0,11.0,49,0.00,,,0.31,meteohub,2013-04-20 17:49:00,
2013-04-20 13:54:00,55.0,35.8,29.94,West,280,0.0,11.0,48,0.00,,,0.31,meteohub,2013-04-20 17:54:00,
2013-04-20 13:59:00,55.6,35.6,29.94,West,269,3.0,11.0,47,0.00,,,0.31,meteohub,2013-04-20 17:59:00,
2013-04-20 14:04:00,56.1,36.7,29.94,West,259,3.0,11.0,48,0.00,,,0.31,meteohub,2013-04-20 18:04:00,
2013-04-20 14:09:00,56.7,36.7,29.94,NW,321,8.0,8.0,47,0.00,,,0.31,meteohub,2013-04-20 18:09:00,
2013-04-20 14:14:00,56.8,35.2,29.94,NNW,347,1.0,10.0,44,0.00,,,0.31,meteohub,2013-04-20 18:14:00,
2013-04-20 14:19:00,57.0,34.7,29.94,NW,306,0.0,10.0,43,0.00,,,0.31,meteohub,2013-04-20 18:19:00,
2013-04-20 14:24:00,57.2,34.9,29.94,West,262,6.0,10.0,43,0.00,,,0.31,meteohub,2013-04-20 18:24:00,
2013-04-20 14:29:00,57.2,34.3,29.94,SW,221,5.0,8.0,42,0.00,,,0.31,meteohub,2013-04-20 18:29:00,
2013-04-20 14:34:00,56.7,33.8,29.94,SSW,207,4.0,8.0,42,0.00,,,0.31,meteohub,2013-04-20 18:34:00,
2013-04-20 14:39:00,56.8,35.8,29.94,SW,228,1.0,16.0,45,0.00,,,0.31,meteohub,2013-04-20 18:39:00,
2013-04-20 14:44:00,57.0,34.7,29.94,NW,305,0.0,16.0,43,0.00,,,0.31,meteohub,2013-04-20 18:44:00,
2013-04-20 14:49:00,57.0,32.9,29.94,West,265,6.0,16.0,40,0.00,,,0.31,meteohub,2013-04-20 18:49:00,
2013-04-20 14:54:00,56.5,33.1,29.94,NNW,336,1.0,13.0,41,0.00,,,0.31,meteohub,2013-04-20 18:54:00,
2013-04-20 14:59:00,56.8,36.3,29.94,WNW,283,2.0,13.0,46,0.00,,,0.31,meteohub,2013-04-20 18:59:00,
2013-04-20 15:05:00,57.6,32.7,29.94,West,271,6.0,13.0,39,0.00,,,0.31,meteohub,2013-04-20 19:05:00,
2013-04-20 15:10:00,58.3,34.7,29.94,NW,304,0.0,11.0,41,0.00,,,0.31,meteohub,2013-04-20 19:10:00,
2013-04-20 15:15:00,58.8,34.5,29.94,WNW,293,3.0,11.0,40,0.00,,,0.31,meteohub,2013-04-20 19:15:00,
2013-04-20 15:20:00,58.6,33.8,29.94,West,279,1.0,11.0,39,0.00,,,0.31,meteohub,2013-04-20 19:20:00,
2013-04-20 15:25:00,58.8,34.5,29.94,West,266,3.0,9.0,40,0.00,,,0.31,meteohub,2013-04-20 19:25:00,
2013-04-20 15:30:00,59.2,32.9,29.94,West,281,2.0,9.0,37,0.00,,,0.31,meteohub,2013-04-20 19:30:00,
2013-04-20 15:35:00,59.4,33.8,29.94,WNW,292,0.0,9.0,38,0.00,,,0.31,meteohub,2013-04-20 19:35:00,
2013-04-20 15:40:00,59.5,33.3,29.94,NW,323,0.0,8.0,37,0.00,,,0.31,meteohub,2013-04-20 19:40:00,
2013-04-20 15:45:00,59.5,34.0,29.95,WNW,288,2.0,8.0,38,0.00,,,0.31,meteohub,2013-04-20 19:45:00,
2013-04-20 15:50:00,59.5,35.2,29.95,SW,229,4.0,7.0,40,0.00,,,0.31,meteohub,2013-04-20 19:50:00,
2013-04-20 15:55:00,59.2,32.2,29.95,NW,311,1.0,7.0,36,0.00,,,0.31,meteohub,2013-04-20 19:55:00,
2013-04-20 16:00:00,58.8,31.3,29.95,WSW,243,1.0,7.0,35,0.00,,,0.31,meteohub,2013-04-20 20:00:00,
2013-04-20 16:05:00,58.6,31.8,29.96,West,265,3.0,9.0,36,0.00,,,0.31,meteohub,2013-04-20 20:05:00,
2013-04-20 16:10:00,58.6,32.4,29.96,WSW,252,1.0,9.0,37,0.00,,,0.31,meteohub,2013-04-20 20:10:00,
2013-04-20 16:15:00,59.0,32.0,29.96,West,269,4.0,10.0,36,0.00,,,0.31,meteohub,2013-04-20 20:15:00,
2013-04-20 16:20:00,58.8,32.5,29.96,West,271,4.0,12.0,37,0.00,,,0.31,meteohub,2013-04-20 20:20:00,
2013-04-20 16:25:00,58.6,31.8,29.96,WSW,240,5.0,12.0,36,0.00,,,0.31,meteohub,2013-04-20 20:25:00,
2013-04-20 16:30:00,58.6,31.1,29.97,West,279,3.0,12.0,35,0.00,,,0.31,meteohub,2013-04-20 20:30:00,
2013-04-20 16:35:00,58.6,31.8,29.97,WNW,284,2.0,9.0,36,0.00,,,0.31,meteohub,2013-04-20 20:35:00,
2013-04-20 16:40:00,58.6,32.4,29.97,WSW,250,6.0,9.0,37,0.00,,,0.31,meteohub,2013-04-20 20:40:00,
2013-04-20 16:45:00,58.6,32.4,29.98,WNW,294,1.0,10.0,37,0.00,,,0.31,meteohub,2013-04-20 20:45:00,
2013-04-20 16:50:00,58.6,31.8,29.98,NW,309,0.0,14.0,36,0.00,,,0.31,meteohub,2013-04-20 20:50:00,
2013-04-20 16:55:00,58.5,31.6,29.98,West,267,1.0,14.0,36,0.00,,,0.31,meteohub,2013-04-20 20:55:00,
2013-04-20 17:00:00,58.3,32.2,29.99,WNW,284,0.0,14.0,37,0.00,,,0.31,meteohub,2013-04-20 21:00:00,
2013-04-20 17:05:00,58.5,32.4,29.99,WNW,286,1.0,11.0,37,0.00,,,0.31,meteohub,2013-04-20 21:05:00,
2013-04-20 17:10:00,58.3,31.5,29.99,WSW,258,0.0,11.0,36,0.00,,,0.31,meteohub,2013-04-20 21:10:00,
2013-04-20 17:15:00,58.1,31.3,29.99,NNW,336,1.0,9.0,36,0.00,,,0.31,meteohub,2013-04-20 21:15:00,
2013-04-20 17:20:00,57.9,31.1,29.99,North,0,1.0,9.0,36,0.00,,,0.31,meteohub,2013-04-20 21:20:00,
2013-04-20 17:25:00,58.1,32.0,30.00,West,267,2.0,9.0,37,0.00,,,0.31,meteohub,2013-04-20 21:25:00,
2013-04-20 17:30:00,57.9,30.4,30.00,West,273,0.0,9.0,35,0.00,,,0.31,meteohub,2013-04-20 21:30:00,
2013-04-20 17:35:00,57.6,31.5,30.00,WNW,284,0.0,9.0,37,0.00,,,0.31,meteohub,2013-04-20 21:35:00,
2013-04-20 17:41:00,57.4,30.6,30.01,West,265,3.0,9.0,36,0.00,,,0.31,meteohub,2013-04-20 21:41:00,
2013-04-20 17:46:00,57.4,30.6,30.01,SW,221,3.0,7.0,36,0.00,,,0.31,meteohub,2013-04-20 21:46:00,
2013-04-20 17:51:00,57.4,31.3,30.01,West,265,1.0,7.0,37,0.00,,,0.31,meteohub,2013-04-20 21:51:00,
2013-04-20 17:56:00,57.6,30.0,30.01,WNW,282,2.0,7.0,35,0.00,,,0.31,meteohub,2013-04-20 21:56:00,
2013-04-20 18:01:00,57.6,30.0,30.02,NNW,340,1.0,6.0,35,0.00,,,0.31,meteohub,2013-04-20 22:01:00,
2013-04-20 18:06:00,57.7,30.9,30.02,West,272,0.0,6.0,36,0.00,,,0.31,meteohub,2013-04-20 22:06:00,
2013-04-20 18:11:00,57.7,31.6,30.02,WSW,254,3.0,8.0,37,0.00,,,0.31,meteohub,2013-04-20 22:11:00,
2013-04-20 18:16:00,57.4,32.0,30.03,NNW,336,2.0,10.0,38,0.00,,,0.31,meteohub,2013-04-20 22:16:00,
2013-04-20 18:21:00,56.8,30.2,30.03,West,261,2.0,10.0,36,0.00,,,0.31,meteohub,2013-04-20 22:21:00,
2013-04-20 18:26:00,56.7,30.0,30.03,WSW,250,2.0,10.0,36,0.00,,,0.31,meteohub,2013-04-20 22:26:00,
2013-04-20 18:31:00,56.1,30.2,30.03,WNW,292,1.0,8.0,37,0.00,,,0.31,meteohub,2013-04-20 22:31:00,
2013-04-20 18:36:00,55.9,31.3,30.04,West,269,0.0,8.0,39,0.00,,,0.31,meteohub,2013-04-20 22:36:00,
2013-04-20 18:41:00,55.9,30.7,30.04,SW,225,3.0,7.0,38,0.00,,,0.31,meteohub,2013-04-20 22:41:00,
2013-04-20 18:46:00,55.8,30.6,30.04,SW,232,3.0,9.0,38,0.00,,,0.31,meteohub,2013-04-20 22:46:00,
2013-04-20 18:51:00,55.6,29.7,30.04,WNW,292,1.0,9.0,37,0.00,,,0.31,meteohub,2013-04-20 22:51:00,
2013-04-20 18:56:00,55.6,30.4,30.04,NW,323,3.0,9.0,38,0.00,,,0.31,meteohub,2013-04-20 22:56:00,
2013-04-20 19:01:00,55.4,30.2,30.05,WNW,298,0.0,6.0,38,0.00,,,0.31,meteohub,2013-04-20 23:01:00,
2013-04-20 19:06:00,55.2,31.3,30.05,NNW,336,0.0,4.0,40,0.00,,,0.31,meteohub,2013-04-20 23:06:00,
2013-04-20 19:11:00,55.0,29.8,30.06,NNW,348,0.0,4.0,38,0.00,,,0.31,meteohub,2013-04-20 23:11:00,
2013-04-20 19:16:00,54.9,29.7,30.06,North,355,5.0,8.0,38,0.00,,,0.31,meteohub,2013-04-20 23:16:00,
2013-04-20 19:21:00,54.7,30.2,30.07,NW,325,3.0,11.0,39,0.00,,,0.31,meteohub,2013-04-20 23:21:00,
2013-04-20 19:26:00,54.1,30.4,30.07,North,5,5.0,11.0,40,0.00,,,0.31,meteohub,2013-04-20 23:26:00,
2013-04-20 19:31:00,54.0,30.2,30.08,North,351,1.0,11.0,40,0.00,,,0.31,meteohub,2013-04-20 23:31:00,
2013-04-20 19:36:00,53.6,31.1,30.08,NNW,336,2.0,9.0,42,0.00,,,0.31,meteohub,2013-04-20 23:36:00,
2013-04-20 19:41:00,53.2,30.7,30.09,NW,315,0.0,6.0,42,0.00,,,0.31,meteohub,2013-04-20 23:41:00,
2013-04-20 19:46:00,53.1,30.6,30.09,NNE,18,1.0,6.0,42,0.00,,,0.31,meteohub,2013-04-20 23:46:00,
2013-04-20 19:51:00,53.1,30.6,30.09,WNW,303,0.0,6.0,42,0.00,,,0.31,meteohub,2013-04-20 23:51:00,
2013-04-20 19:56:00,52.9,30.9,30.10,NNW,338,1.0,6.0,43,0.00,,,0.31,meteohub,2013-04-20 23:56:00,
2013-04-20 20:01:00,52.5,31.3,30.10,NNW,337,2.0,6.0,44,0.00,,,0.31,meteohub,2013-04-21 00:01:00,
2013-04-20 20:06:00,52.3,31.1,30.11,NW,321,0.0,4.0,44,0.00,,,0.31,meteohub,2013-04-21 00:06:00,
2013-04-20 20:11:00,52.2,30.4,30.12,WNW,298,1.0,3.0,43,0.00,,,0.31,meteohub,2013-04-21 00:11:00,
2013-04-20 20:16:00,51.8,30.0,30.12,WNW,287,3.0,5.0,43,0.00,,,0.31,meteohub,2013-04-21 00:16:00,
2013-04-20 20:21:00,51.4,29.7,30.13,NW,323,0.0,6.0,43,0.00,,,0.31,meteohub,2013-04-21 00:21:00,
2013-04-20 20:26:00,51.3,30.0,30.13,NNW,342,0.0,6.0,44,0.00,,,0.31,meteohub,2013-04-21 00:26:00,
2013-04-20 20:32:00,51.1,30.6,30.14,West,267,1.0,9.0,45,0.00,,,0.31,meteohub,2013-04-21 00:32:00,
2013-04-20 20:37:00,50.7,30.2,30.14,NNW,339,2.0,9.0,45,0.00,,,0.31,meteohub,2013-04-21 00:37:00,
2013-04-20 20:42:00,50.4,29.8,30.14,NNW,331,1.0,4.0,45,0.00,,,0.31,meteohub,2013-04-21 00:42:00,
2013-04-20 20:47:00,50.2,29.7,30.15,NW,323,0.0,6.0,45,0.00,,,0.31,meteohub,2013-04-21 00:47:00,
2013-04-20 20:52:00,50.0,28.9,30.16,NNW,331,0.0,9.0,44,0.00,,,0.31,meteohub,2013-04-21 00:52:00,
2013-04-20 20:57:00,49.8,29.3,30.16,NW,317,2.0,9.0,45,0.00,,,0.31,meteohub,2013-04-21 00:57:00,
2013-04-20 21:02:00,49.6,29.7,30.17,NW,311,0.0,9.0,46,0.00,,,0.31,meteohub,2013-04-21 01:02:00,
2013-04-20 21:07:00,49.5,29.5,30.17,NW,305,1.0,5.0,46,0.00,,,0.31,meteohub,2013-04-21 01:07:00,
2013-04-20 21:12:00,49.5,29.5,30.17,WNW,284,1.0,5.0,46,0.00,,,0.31,meteohub,2013-04-21 01:12:00,
2013-04-20 21:17:00,49.3,28.8,30.18,North,355,1.0,4.0,45,0.00,,,0.31,meteohub,2013-04-21 01:17:00,
2013-04-20 21:22:00,49.1,29.1,30.19,NNW,345,1.0,5.0,46,0.00,,,0.31,meteohub,2013-04-21 01:22:00,
2013-04-20 21:27:00,48.9,29.7,30.19,WNW,297,2.0,5.0,47,0.00,,,0.31,meteohub,2013-04-21 01:27:00,
2013-04-20 21:32:00,48.7,29.5,30.20,NNW,336,0.0,5.0,47,0.00,,,0.31,meteohub,2013-04-21 01:32:00,
2013-04-20 21:37:00,48.4,29.7,30.21,WNW,293,1.0,4.0,48,0.00,,,0.31,meteohub,2013-04-21 01:37:00,
2013-04-20 21:42:00,48.0,29.8,30.21,NNW,336,0.0,6.0,49,0.00,,,0.31,meteohub,2013-04-21 01:42:00,
2013-04-20 21:47:00,47.7,30.0,30.21,North,355,1.0,6.0,50,0.00,,,0.31,meteohub,2013-04-21 01:47:00,
2013-04-20 21:52:00,47.3,30.0,30.22,NNW,336,2.0,11.0,51,0.00,,,0.31,meteohub,2013-04-21 01:52:00,
2013-04-20 21:57:00,46.9,29.8,30.22,NNW,336,1.0,11.0,51,0.00,,,0.31,meteohub,2013-04-21 01:57:00,
2013-04-20 22:02:00,46.6,29.8,30.22,North,9,4.0,11.0,52,0.00,,,0.31,meteohub,2013-04-21 02:02:00,
2013-04-20 22:07:00,46.0,29.5,30.23,NW,306,1.0,8.0,52,0.00,,,0.31,meteohub,2013-04-21 02:07:00,
2013-04-20 22:12:00,45.9,29.3,30.24,WNW,288,3.0,14.0,52,0.00,,,0.31,meteohub,2013-04-21 02:12:00,
2013-04-20 22:17:00,45.5,28.9,30.25,NNW,346,6.0,14.0,52,0.00,,,0.31,meteohub,2013-04-21 02:17:00,
2013-04-20 22:22:00,45.1,28.9,30.25,NNW,344,1.0,14.0,53,0.00,,,0.31,meteohub,2013-04-21 02:22:00,
2013-04-20 22:27:00,45.0,29.3,30.25,NW,322,1.0,10.0,54,0.00,,,0.31,meteohub,2013-04-21 02:27:00,
2013-04-20 22:32:00,44.8,29.1,30.25,NW,313,0.0,8.0,54,0.00,,,0.31,meteohub,2013-04-21 02:32:00,
2013-04-20 22:37:00,44.4,28.8,30.25,NNW,344,4.0,8.0,54,0.00,,,0.31,meteohub,2013-04-21 02:37:00,
2013-04-20 22:42:00,44.2,28.6,30.25,NNW,348,7.0,8.0,54,0.00,,,0.31,meteohub,2013-04-21 02:42:00,
2013-04-20 22:47:00,44.1,28.9,30.26,North,0,3.0,11.0,55,0.00,,,0.31,meteohub,2013-04-21 02:47:00,
2013-04-20 22:52:00,43.5,28.0,30.26,NW,321,1.0,14.0,54,0.00,,,0.31,meteohub,2013-04-21 02:52:00,
2013-04-20 22:57:00,43.2,27.7,30.27,NNW,348,3.0,14.0,54,0.00,,,0.31,meteohub,2013-04-21 02:57:00,
2013-04-20 23:02:00,43.0,27.9,30.27,NW,313,0.0,13.0,55,0.00,,,0.31,meteohub,2013-04-21 03:02:00,
2013-04-20 23:07:00,42.6,27.5,30.27,NW,317,3.0,13.0,55,0.00,,,0.31,meteohub,2013-04-21 03:07:00,
2013-04-20 23:12:00,42.4,27.5,30.28,WNW,294,1.0,13.0,55,0.00,,,0.31,meteohub,2013-04-21 03:12:00,
2013-04-20 23:17:00,42.1,27.1,30.28,WSW,254,2.0,7.0,55,0.00,,,0.31,meteohub,2013-04-21 03:17:00,
2013-04-20 23:22:00,41.7,26.8,30.28,NW,326,3.0,11.0,55,0.00,,,0.31,meteohub,2013-04-21 03:22:00,
2013-04-20 23:27:00,41.5,26.6,30.29,NW,311,4.0,11.0,55,0.00,,,0.31,meteohub,2013-04-21 03:27:00,
2013-04-20 23:31:00,41.4,26.4,30.29,NW,318,0.0,10.0,55,0.00,,,0.31,meteohub,2013-04-21 03:31:00,
2013-04-20 23:37:00,41.2,25.9,30.29,NW,306,5.0,10.0,54,0.00,,,0.31,meteohub,2013-04-21 03:37:00,
2013-04-20 23:42:00,41.0,25.7,30.29,North,355,2.0,10.0,54,0.00,,,0.31,meteohub,2013-04-21 03:42:00,
2013-04-20 23:47:00,40.8,25.5,30.30,NW,318,0.0,10.0,54,0.00,,,0.31,meteohub,2013-04-21 03:47:00,
2013-04-20 23:52:00,40.6,25.7,30.30,NW,317,2.0,10.0,55,0.00,,,0.31,meteohub,2013-04-21 03:52:00,
2013-04-20 23:57:00,40.5,25.5,30.30,North,355,9.0,9.0,55,0.00,,,0.31,meteohub,2013-04-21 03:57:00,